createdAt,value
2023-01-29T00:02:07.864Z,8.73
2023-01-29T00:04:36.549Z,8.97
2023-01-29T00:07:05.257Z,10.73
2023-01-29T00:09:35.233Z,9.83
2023-01-29T00:12:05.662Z,9.07
2023-01-29T00:14:35.854Z,10.43
2023-01-29T00:17:06.062Z,10.57
2023-01-29T00:19:36.405Z,9.80
2023-01-29T00:22:06.955Z,10.57
2023-01-29T00:24:35.839Z,11.50
2023-01-29T00:27:04.710Z,10.63
2023-01-29T00:29:33.516Z,10.83
2023-01-29T00:32:02.452Z,11.30
2023-01-29T00:34:34.546Z,11.40
2023-01-29T00:37:05.039Z,12.13
2023-01-29T00:39:47.096Z,10.80
2023-01-29T00:42:25.199Z,11.17
2023-01-29T00:44:59.998Z,11.97
2023-01-29T00:47:33.706Z,12.17
2023-01-29T00:50:05.052Z,10.23
2023-01-29T00:52:35.691Z,9.57
2023-01-29T00:55:06.385Z,9.97
2023-01-29T00:57:36.187Z,9.97
2023-01-29T01:00:08.980Z,11.13
2023-01-29T01:02:55.497Z,11.10
2023-01-29T01:05:24.793Z,8.43
2023-01-29T01:07:58.547Z,10.43
2023-01-29T01:10:32.996Z,9.73
2023-01-29T01:13:06.588Z,11.03
2023-01-29T01:15:40.464Z,10.37
2023-01-29T01:18:10.888Z,10.27
2023-01-29T01:20:40.076Z,10.27
2023-01-29T01:23:08.798Z,6.93
2023-01-29T01:25:39.024Z,10.23
2023-01-29T01:28:08.039Z,9.70
2023-01-29T01:30:36.783Z,9.03
2023-01-29T01:33:05.892Z,9.07
2023-01-29T01:35:34.795Z,9.90
2023-01-29T01:38:03.527Z,6.33
2023-01-29T01:40:32.242Z,9.07
2023-01-29T01:43:02.688Z,9.53
2023-01-29T01:45:36.385Z,8.30
2023-01-29T01:48:13.352Z,8.67
2023-01-29T01:50:56.872Z,9.70
2023-01-29T01:53:32.249Z,9.37
2023-01-29T01:56:03.867Z,9.57
2023-01-29T01:58:41.441Z,8.87
2023-01-29T02:01:12.008Z,9.00
2023-01-29T02:04:02.453Z,9.73
2023-01-29T02:06:50.101Z,10.00
2023-01-29T02:09:36.846Z,9.67
2023-01-29T02:12:12.005Z,9.17
2023-01-29T02:14:42.425Z,9.40
2023-01-29T02:17:14.414Z,9.30
2023-01-29T02:20:04.783Z,9.90
2023-01-29T02:22:55.448Z,11.20
2023-01-29T02:25:42.502Z,8.77
2023-01-29T02:28:22.474Z,10.00
2023-01-29T02:31:15.339Z,8.57
2023-01-29T02:33:59.069Z,9.47
2023-01-29T02:36:42.852Z,8.10
2023-01-29T02:39:14.667Z,9.47
2023-01-29T02:41:49.068Z,11.33
2023-01-29T02:44:24.769Z,10.40
2023-01-29T02:47:08.816Z,10.07
2023-01-29T02:49:56.479Z,9.77
2023-01-29T02:52:44.732Z,10.63
2023-01-29T02:55:19.352Z,10.70
2023-01-29T02:57:50.442Z,10.00
2023-01-29T03:00:22.351Z,9.83
2023-01-29T03:02:53.991Z,11.20
2023-01-29T03:05:44.978Z,8.20
2023-01-29T03:08:16.672Z,11.23
2023-01-29T03:10:48.691Z,9.80
2023-01-29T03:13:22.153Z,10.50
2023-01-29T03:15:57.446Z,10.17
2023-01-29T03:18:30.747Z,10.17
2023-01-29T03:21:06.602Z,10.00
2023-01-29T03:23:55.993Z,10.80
2023-01-29T03:26:43.781Z,10.70
2023-01-29T03:29:32.168Z,10.23
2023-01-29T03:32:08.224Z,10.63
2023-01-29T03:34:45.860Z,8.77
2023-01-29T03:37:33.467Z,10.17
2023-01-29T03:40:04.822Z,8.13
2023-01-29T03:42:48.783Z,7.83
2023-01-29T03:45:35.909Z,8.33
2023-01-29T03:48:20.805Z,9.20
2023-01-29T03:50:55.007Z,8.67
2023-01-29T03:53:32.438Z,10.00
2023-01-29T03:56:27.892Z,7.17
2023-01-29T03:59:16.341Z,8.33
2023-01-29T04:02:00.470Z,8.27
2023-01-29T04:07:31.040Z,7.87
2023-01-29T04:10:09.506Z,8.13
2023-01-29T04:13:28.461Z,7.93
2023-01-29T04:16:16.736Z,7.37
2023-01-29T04:19:05.660Z,7.37
2023-01-29T04:22:20.732Z,8.17
2023-01-29T04:27:44.145Z,8.07
2023-01-29T04:30:24.890Z,7.43
2023-01-29T04:33:19.047Z,7.37
2023-01-29T04:36:15.282Z,7.27
2023-01-29T04:39:04.870Z,6.90
2023-01-29T04:41:51.492Z,6.30
2023-01-29T04:44:27.114Z,6.87
2023-01-29T04:50:03.916Z,6.60
2023-01-29T04:52:55.256Z,6.87
2023-01-29T04:58:03.231Z,6.73
2023-01-29T04:59:18.036Z,6.33
2023-01-29T05:02:04.019Z,6.80
2023-01-29T05:07:47.333Z,6.93
2023-01-29T05:10:30.260Z,7.17
2023-01-29T05:13:13.928Z,7.40
2023-01-29T05:16:04.253Z,5.97
2023-01-29T05:18:58.497Z,6.67
2023-01-29T05:21:48.175Z,6.50
2023-01-29T05:24:25.079Z,7.77
2023-01-29T05:28:56.034Z,7.23
2023-01-29T05:30:12.921Z,7.43
2023-01-29T05:38:36.793Z,8.63
2023-01-29T05:47:44.061Z,6.93
2023-01-29T05:50:11.241Z,6.23
2023-01-29T05:53:02.667Z,6.97
2023-01-29T05:55:58.841Z,7.77
2023-01-29T06:07:52.311Z,7.37
2023-01-29T06:10:42.567Z,6.07
2023-01-29T06:19:28.095Z,9.10
2023-01-29T06:22:09.104Z,8.67
2023-01-29T06:24:56.592Z,8.90
2023-01-29T06:28:01.846Z,8.47
2023-01-29T06:39:44.966Z,11.43
2023-01-29T06:42:14.148Z,8.57
2023-01-29T06:53:35.698Z,10.60
2023-01-29T06:56:29.238Z,10.13
2023-01-29T07:02:03.375Z,11.10
2023-01-29T07:04:42.991Z,11.67
2023-01-29T07:07:28.674Z,11.90
2023-01-29T07:10:14.439Z,12.20
2023-01-29T07:12:55.887Z,12.20
2023-01-29T07:15:56.971Z,11.40
2023-01-29T07:18:14.167Z,13.63
2023-01-29T07:22:14.480Z,12.17
2023-01-29T07:30:11.987Z,10.90
2023-01-29T07:33:13.478Z,13.07
2023-01-29T07:39:00.345Z,10.53
2023-01-29T07:41:45.502Z,10.27
2023-01-29T07:54:13.917Z,10.83
2023-01-29T09:08:42.922Z,12.87
2023-01-29T09:17:39.072Z,11.00
2023-01-29T09:28:16.064Z,12.00
2023-01-29T09:33:38.569Z,12.63
2023-01-29T10:06:25.606Z,14.20
2023-01-29T10:09:32.731Z,13.83
2023-01-29T10:13:02.043Z,15.43
2023-01-29T10:19:16.283Z,13.37
2023-01-29T10:21:53.663Z,12.67
2023-01-29T10:24:31.135Z,12.47
2023-01-29T10:27:17.300Z,12.80
2023-01-29T10:29:48.446Z,13.20
2023-01-29T10:32:28.853Z,14.57
2023-01-29T10:35:05.274Z,12.70
2023-01-29T10:37:43.502Z,13.73
2023-01-29T10:44:05.031Z,13.43
2023-01-29T10:46:51.842Z,13.87
2023-01-29T10:53:43.236Z,14.83
2023-01-29T11:03:00.718Z,15.83
2023-01-29T11:13:08.812Z,13.03
2023-01-29T11:19:10.104Z,16.47
2023-01-29T11:22:12.424Z,18.40
2023-01-29T11:24:47.981Z,14.10
2023-01-29T11:27:41.975Z,16.63
2023-01-29T11:30:34.862Z,16.67
2023-01-29T11:33:21.211Z,15.10
2023-01-29T11:35:50.129Z,16.27
2023-01-29T11:39:08.819Z,15.33
2023-01-29T12:50:00.224Z,19.87
2023-01-29T13:27:04.723Z,12.07
2023-01-29T13:33:15.837Z,13.27
2023-01-29T13:36:00.989Z,11.97
2023-01-29T13:38:48.228Z,13.47
2023-01-29T13:57:35.556Z,12.77
2023-01-29T14:04:09.316Z,11.43
2023-01-29T14:07:02.073Z,14.73
2023-01-29T14:09:45.500Z,16.40
2023-01-29T14:16:34.088Z,15.20
2023-01-29T14:19:32.367Z,16.23
2023-01-29T14:24:12.510Z,14.63
2023-01-29T14:25:44.988Z,11.17
2023-01-29T14:34:30.779Z,14.67
2023-01-29T14:38:07.343Z,14.57
2023-01-29T14:40:54.988Z,15.40
2023-01-29T14:47:03.926Z,14.67
2023-01-29T14:56:23.108Z,18.27
2023-01-29T15:02:01.370Z,14.63
2023-01-29T15:05:04.281Z,15.83
2023-01-29T15:08:04.344Z,16.67
2023-01-29T15:11:10.546Z,13.87
2023-01-29T15:14:04.728Z,14.50
2023-01-29T15:17:30.564Z,15.63
2023-01-29T15:20:40.454Z,16.40
2023-01-29T15:26:27.261Z,16.50
2023-01-29T15:49:09.723Z,14.33
2023-01-29T15:51:55.802Z,13.43
2023-01-29T15:54:34.441Z,15.37
2023-01-29T15:57:16.873Z,15.70
2023-01-29T16:00:24.242Z,14.53
2023-01-29T16:12:40.588Z,12.20
2023-01-29T16:15:12.409Z,12.73
2023-01-29T16:17:43.920Z,14.77
2023-01-29T16:26:28.647Z,14.30
2023-01-29T16:26:45.342Z,12.67
2023-01-29T16:29:35.169Z,14.40
2023-01-29T16:32:15.851Z,12.50
2023-01-29T16:35:37.743Z,14.60
2023-01-29T16:38:39.303Z,13.40
2023-01-29T16:41:20.277Z,15.13
2023-01-29T16:44:12.508Z,15.00
2023-01-29T16:46:54.752Z,15.10
2023-01-29T16:49:34.574Z,15.23
2023-01-29T16:52:33.104Z,15.37
2023-01-29T16:55:04.855Z,14.87
2023-01-29T16:57:39.423Z,15.07
2023-01-29T17:00:29.311Z,15.47
2023-01-29T17:03:01.962Z,15.83
2023-01-29T17:05:36.895Z,23.23
2023-01-29T17:08:07.110Z,15.53
2023-01-29T17:10:37.736Z,15.73
2023-01-29T17:13:17.073Z,13.87
2023-01-29T17:15:49.408Z,14.20
2023-01-29T17:18:24.100Z,12.37
2023-01-29T17:20:53.936Z,14.70
2023-01-29T17:23:27.085Z,15.60
2023-01-29T17:26:00.367Z,16.27
2023-01-29T17:28:33.988Z,16.07
2023-01-29T17:31:08.245Z,16.10
2023-01-29T17:33:39.554Z,15.37
2023-01-29T17:36:10.332Z,13.67
2023-01-29T17:38:39.358Z,15.13
2023-01-29T17:41:30.884Z,14.07
2023-01-29T17:43:59.860Z,14.03
2023-01-29T17:46:31.793Z,14.47
2023-01-29T17:49:06.972Z,15.30
2023-01-29T17:51:35.839Z,14.63
2023-01-29T17:54:06.023Z,15.27
2023-01-29T17:56:37.779Z,15.10
2023-01-29T17:59:19.030Z,25.23
2023-01-29T18:01:51.464Z,16.60
2023-01-29T18:04:23.280Z,14.33
2023-01-29T18:06:53.408Z,16.07
2023-01-29T18:09:23.068Z,15.67
2023-01-29T18:11:53.477Z,16.30
2023-01-29T18:14:25.209Z,17.17
2023-01-29T18:17:07.556Z,16.50
2023-01-29T18:19:37.956Z,29.03
2023-01-29T18:22:20.403Z,20.13
2023-01-29T18:24:52.404Z,21.97
2023-01-29T18:27:22.763Z,15.90
2023-01-29T18:29:52.995Z,15.53
2023-01-29T18:32:21.940Z,16.57
2023-01-29T18:34:52.456Z,15.83
2023-01-29T18:37:21.167Z,15.57
2023-01-29T18:40:04.586Z,19.63
2023-01-29T18:42:35.740Z,19.13
2023-01-29T18:45:05.663Z,17.63
2023-01-29T18:47:34.341Z,17.47
2023-01-29T18:50:29.067Z,17.43
2023-01-29T18:52:54.055Z,19.50
2023-01-29T20:58:05.237Z,12.80
2023-01-29T21:00:22.817Z,16.27
2023-01-29T21:02:51.528Z,18.87
2023-01-29T21:05:20.194Z,14.97
2023-01-29T21:07:50.624Z,20.30
2023-01-29T21:10:21.165Z,18.87
2023-01-29T21:12:52.844Z,19.87
2023-01-29T21:15:21.920Z,20.10
2023-01-29T21:17:51.770Z,18.40
2023-01-29T21:20:21.173Z,19.87
2023-01-29T21:22:50.015Z,19.30
2023-01-29T21:25:20.430Z,17.00
2023-01-29T21:27:52.627Z,18.40
2023-01-29T21:30:21.464Z,18.40
2023-01-29T21:32:50.179Z,19.40
2023-01-29T21:35:18.813Z,19.17
2023-01-29T21:37:47.451Z,20.23
2023-01-29T21:40:19.545Z,18.43
2023-01-29T21:43:07.617Z,19.57
2023-01-29T21:45:38.108Z,20.87
2023-01-29T21:48:07.486Z,19.03
2023-01-29T21:50:39.163Z,19.47
2023-01-29T21:53:17.502Z,20.73
2023-01-29T21:55:57.829Z,19.97
2023-01-29T21:58:19.647Z,18.80
2023-01-29T22:00:49.093Z,20.33
2023-01-29T22:03:18.046Z,19.53
2023-01-29T22:05:46.732Z,21.07
2023-01-29T22:08:15.412Z,19.83
2023-01-29T22:10:46.068Z,19.17
2023-01-29T22:13:15.523Z,16.57
2023-01-29T22:15:44.124Z,17.63
2023-01-29T22:18:12.703Z,17.37
2023-01-29T22:20:42.914Z,15.93
2023-01-29T22:23:12.809Z,17.10
2023-01-29T22:25:42.696Z,16.90
2023-01-29T22:28:11.481Z,17.53
2023-01-29T22:30:43.093Z,16.40
2023-01-29T22:33:14.447Z,16.97
2023-01-29T22:35:43.190Z,18.30
2023-01-29T22:38:11.710Z,20.00
2023-01-29T22:40:40.497Z,16.57
2023-01-29T22:43:09.158Z,16.23
2023-01-29T22:45:41.725Z,17.87
2023-01-29T22:48:12.602Z,19.77
2023-01-29T22:50:50.314Z,20.23
2023-01-29T22:53:19.214Z,20.77
2023-01-29T22:55:55.682Z,21.97
2023-01-29T22:58:24.391Z,19.97
2023-01-29T23:00:53.029Z,19.93
2023-01-29T23:03:21.664Z,22.03
2023-01-29T23:05:50.289Z,21.97
2023-01-29T23:08:20.691Z,20.70
2023-01-29T23:10:49.348Z,21.40
2023-01-29T23:13:18.070Z,22.07
2023-01-29T23:15:46.679Z,20.47
2023-01-29T23:18:15.465Z,18.23
2023-01-29T23:20:44.249Z,18.87
2023-01-29T23:23:14.378Z,14.57
2023-01-29T23:26:01.180Z,16.50
2023-01-29T23:28:31.141Z,12.00
2023-01-29T23:30:59.878Z,12.40
2023-01-29T23:33:33.317Z,12.70
2023-01-29T23:36:01.963Z,13.37
2023-01-29T23:38:30.693Z,11.80
2023-01-29T23:40:59.878Z,12.57
2023-01-29T23:43:32.229Z,12.87
2023-01-29T23:46:02.134Z,10.13
2023-01-29T23:48:30.637Z,12.40
2023-01-29T23:50:59.325Z,13.13
2023-01-29T23:53:28.051Z,12.47
2023-01-29T23:56:04.516Z,11.93
2023-01-29T23:58:34.267Z,11.93
